createdAt,value
2018-06-22T04:35:38.338Z,35
2018-06-22T04:35:58.773Z,35
2018-06-22T04:36:20.804Z,35
2018-06-22T04:36:41.290Z,35
2018-06-22T04:37:01.612Z,35
2018-06-22T04:37:22.343Z,35
2018-06-22T04:37:43.755Z,35
2018-06-22T04:38:04.264Z,35
2018-06-22T04:38:24.975Z,35
2018-06-22T04:38:46.540Z,35
2018-06-22T04:39:07.336Z,35
2018-06-22T04:39:28.005Z,35
2018-06-22T04:39:48.531Z,35
2018-06-22T04:40:09.327Z,40
2018-06-22T04:40:30.050Z,40
2018-06-22T04:40:50.492Z,40
2018-06-22T04:41:11.177Z,35
2018-06-22T04:41:32.000Z,35
2018-06-22T04:41:52.394Z,30
2018-06-22T04:42:15.440Z,30
2018-06-22T04:42:36.149Z,30
2018-06-22T04:42:57.413Z,30
2018-06-22T04:43:19.878Z,30
2018-06-22T04:43:41.577Z,30
2018-06-22T04:44:02.150Z,25
2018-06-22T04:44:22.982Z,25
2018-06-22T04:44:43.820Z,25
2018-06-22T04:46:21.290Z,25
2018-06-22T04:46:41.821Z,20
2018-06-22T04:47:33.661Z,20
2018-06-22T04:47:54.056Z,20
2018-06-22T04:48:14.374Z,20
2018-06-22T04:48:34.641Z,20
2018-06-22T04:48:55.032Z,20
2018-06-22T04:49:15.300Z,20
2018-06-22T04:49:35.562Z,20
2018-06-22T04:49:55.931Z,20
2018-06-22T04:50:16.939Z,20
2018-06-22T04:50:37.234Z,25
2018-06-22T04:50:57.591Z,25
2018-06-22T04:51:42.364Z,25
2018-06-22T04:52:02.625Z,25
2018-06-22T04:52:57.240Z,25
2018-06-22T04:53:17.649Z,30
2018-06-22T04:53:37.963Z,30
2018-06-22T04:53:58.681Z,30
2018-06-22T04:54:19.776Z,30
2018-06-22T04:54:40.128Z,35
2018-06-22T04:55:00.475Z,35
2018-06-22T04:55:20.675Z,35
2018-06-22T04:55:41.033Z,35
2018-06-22T04:56:02.172Z,35
2018-06-22T04:56:24.293Z,35
2018-06-22T04:56:45.826Z,35
2018-06-22T04:57:07.361Z,35
2018-06-22T04:57:28.345Z,35
2018-06-22T04:57:48.583Z,35
2018-06-22T05:04:01.625Z,35
2018-06-22T05:04:22.445Z,35
2018-06-22T05:06:24.145Z,40
2018-06-22T05:06:46.213Z,40
2018-06-22T05:07:26.354Z,40
2018-06-22T05:07:47.316Z,40
2018-06-22T05:11:36.783Z,40
2018-06-22T05:12:55.662Z,40
2018-06-22T05:15:48.606Z,45
2018-06-22T05:16:09.405Z,45
2018-06-22T05:16:32.278Z,45
2018-06-22T05:16:52.895Z,45
2018-06-22T05:17:13.491Z,45
2018-06-22T05:17:34.231Z,45
2018-06-22T05:17:54.701Z,45
2018-06-22T05:18:15.657Z,45
2018-06-22T05:18:36.336Z,45
2018-06-22T05:18:56.842Z,45
2018-06-22T05:19:17.318Z,45
2018-06-22T05:19:37.986Z,40
2018-06-22T05:19:58.568Z,40
2018-06-22T05:20:19.315Z,40
2018-06-22T05:20:40.049Z,40
2018-06-22T05:21:00.483Z,40
2018-06-22T05:21:21.026Z,45
2018-06-22T05:21:41.469Z,45
2018-06-22T05:22:01.844Z,45
2018-06-22T05:22:22.438Z,45
2018-06-22T05:22:42.939Z,45
2018-06-22T05:23:03.319Z,40
2018-06-22T05:23:23.842Z,40
2018-06-22T05:23:44.730Z,40
2018-06-22T05:24:05.283Z,40
2018-06-22T05:24:26.992Z,40
2018-06-22T05:24:47.436Z,40
2018-06-22T05:25:07.817Z,35
2018-06-22T05:25:28.271Z,35
2018-06-22T05:25:49.517Z,30
2018-06-22T05:26:09.988Z,30
2018-06-22T05:26:30.363Z,25
2018-06-22T05:26:50.912Z,25
2018-06-22T05:27:11.337Z,25
2018-06-22T05:27:31.821Z,20
2018-06-22T05:27:52.453Z,20
2018-06-22T05:28:12.778Z,20
2018-06-22T05:28:33.291Z,20
2018-06-22T05:28:53.762Z,20
2018-06-22T05:29:14.165Z,20
2018-06-22T05:29:34.605Z,20
2018-06-22T05:29:55.942Z,20
2018-06-22T05:30:16.368Z,20
2018-06-22T05:30:37.071Z,20
2018-06-22T05:30:57.551Z,20
2018-06-22T05:31:17.976Z,20
2018-06-22T05:31:38.610Z,15
2018-06-22T05:31:59.206Z,15
2018-06-22T05:32:19.661Z,15
2018-06-22T05:32:40.112Z,15
2018-06-22T05:33:00.699Z,15
2018-06-22T06:38:55.809Z,20
2018-06-22T06:39:16.762Z,25
2018-06-22T06:39:37.150Z,25
2018-06-22T06:40:29.730Z,30
2018-06-22T06:40:50.218Z,30
2018-06-22T06:41:10.739Z,30
2018-06-22T06:41:31.406Z,30
2018-06-22T06:41:52.076Z,30
2018-06-22T06:42:12.390Z,30
2018-06-22T06:42:33.627Z,30
2018-06-22T06:42:54.109Z,30
2018-06-22T06:43:14.706Z,30
2018-06-22T06:43:35.160Z,30
2018-06-22T06:43:55.716Z,30
2018-06-22T06:48:09.159Z,30
2018-06-22T06:48:30.726Z,30
2018-06-22T06:48:51.229Z,30
2018-06-22T06:49:12.659Z,30
2018-06-22T06:49:33.251Z,30
2018-06-22T06:49:53.613Z,30
2018-06-22T06:50:15.114Z,30
2018-06-22T06:50:35.358Z,30
2018-06-22T06:50:55.674Z,30
2018-06-22T06:51:15.903Z,30
2018-06-22T06:51:36.353Z,30
2018-06-22T06:51:56.945Z,30
2018-06-22T06:52:17.459Z,30
2018-06-22T06:52:38.071Z,30
2018-06-22T06:52:58.854Z,30
2018-06-22T06:53:19.411Z,25
2018-06-22T06:53:39.918Z,25
2018-06-22T06:54:00.280Z,25
2018-06-22T06:54:20.630Z,25
2018-06-22T06:54:41.032Z,25
2018-06-22T06:55:01.535Z,25
2018-06-22T06:55:21.889Z,25
2018-06-22T06:55:42.365Z,25
2018-06-22T06:56:02.794Z,25
2018-06-22T06:56:23.115Z,25
2018-06-22T06:56:43.358Z,30
2018-06-22T06:57:03.693Z,30
2018-06-22T06:57:42.721Z,30
2018-06-22T06:58:03.112Z,30
2018-06-22T06:58:23.411Z,30
2018-06-22T06:58:44.023Z,30
2018-06-22T06:59:05.018Z,30
2018-06-22T06:59:25.953Z,30
2018-06-22T06:59:46.389Z,30
2018-06-22T07:00:06.742Z,30
2018-06-22T07:00:26.997Z,30
2018-06-22T07:00:49.089Z,30
2018-06-22T07:01:09.377Z,30
2018-06-22T07:01:29.702Z,30
2018-06-22T07:01:50.225Z,30
2018-06-22T07:02:11.598Z,25
2018-06-22T07:02:32.049Z,25
2018-06-22T07:24:48.013Z,40
2018-06-22T07:25:33.213Z,40
2018-06-22T07:26:24.848Z,40
2018-06-22T07:26:45.196Z,40
2018-06-22T07:27:29.520Z,40
2018-06-22T07:27:49.931Z,40
2018-06-22T07:28:10.183Z,40
2018-06-22T07:28:30.401Z,45
2018-06-22T07:28:50.683Z,45
2018-06-22T07:29:10.916Z,45
2018-06-22T07:29:31.147Z,45
2018-06-22T07:29:51.305Z,45
2018-06-22T07:30:11.476Z,45
2018-06-22T07:30:31.741Z,45
2018-06-22T07:30:52.796Z,45
2018-06-22T07:31:13.093Z,45
2018-06-22T07:31:33.437Z,45
2018-06-22T07:31:53.726Z,45
2018-06-22T07:32:16.231Z,45
2018-06-22T07:32:39.313Z,45
2018-06-22T07:33:04.014Z,40
2018-06-22T07:33:31.863Z,40
2018-06-22T07:33:57.932Z,40
2018-06-22T07:34:21.546Z,40
2018-06-22T07:34:43.503Z,40
2018-06-22T07:35:05.812Z,40
2018-06-22T07:35:27.399Z,40
2018-06-22T07:35:56.659Z,45
2018-06-22T07:36:24.702Z,45
2018-06-22T07:36:49.825Z,45
2018-06-22T07:37:13.038Z,45
2018-06-22T07:37:33.657Z,45
2018-06-22T07:37:54.047Z,45
2018-06-22T07:38:14.524Z,45
2018-06-22T07:38:34.790Z,45
2018-06-22T07:38:55.196Z,45
2018-06-22T07:39:15.716Z,45
2018-06-22T07:39:37.915Z,45
2018-06-22T07:39:58.191Z,45
2018-06-22T07:40:18.609Z,45
2018-06-22T07:40:39.856Z,45
2018-06-22T07:41:00.323Z,45
2018-06-22T07:41:20.679Z,45
2018-06-22T07:41:41.159Z,45
2018-06-22T07:42:01.391Z,40
2018-06-22T07:42:21.665Z,40
2018-06-22T07:42:42.094Z,40
2018-06-22T07:43:02.457Z,40
2018-06-22T07:43:24.490Z,40
2018-06-22T07:43:44.695Z,40
2018-06-22T07:44:37.957Z,40
2018-06-22T07:44:58.673Z,35
2018-06-22T07:45:50.523Z,35
2018-06-22T07:46:11.039Z,35
2018-06-22T07:47:07.287Z,40
2018-06-22T07:47:27.911Z,40
2018-06-22T07:47:48.548Z,40
2018-06-22T07:48:08.961Z,40
2018-06-22T07:48:29.576Z,40
2018-06-22T07:48:49.898Z,40
2018-06-22T07:49:10.365Z,40
2018-06-22T07:49:30.922Z,40
2018-06-22T07:49:51.403Z,40
2018-06-22T07:50:11.792Z,40
2018-06-22T07:50:34.883Z,40
2018-06-22T07:50:55.433Z,40
2018-06-22T07:51:16.175Z,40
2018-06-22T07:51:36.624Z,40
2018-06-22T07:51:58.158Z,40
2018-06-22T07:52:18.465Z,45
2018-06-22T07:53:00.616Z,45
2018-06-22T07:53:20.941Z,45
2018-06-22T07:54:43.694Z,45
2018-06-22T07:55:04.359Z,45
2018-06-22T07:55:52.073Z,40
2018-06-22T07:56:12.673Z,40
2018-06-22T07:56:51.589Z,45
2018-06-22T07:57:51.657Z,45
2018-06-22T07:58:37.733Z,45
2018-06-22T07:59:34.554Z,40
2018-06-22T07:59:54.984Z,40
2018-06-22T08:00:52.480Z,40
2018-06-22T08:01:12.909Z,40
2018-06-22T08:09:29.653Z,30
2018-06-22T08:10:38.597Z,40
2018-06-22T08:11:30.428Z,40
2018-06-22T08:11:51.378Z,40
2018-06-22T08:12:11.661Z,40
2018-06-22T08:12:32.044Z,35
2018-06-22T08:12:52.497Z,35
2018-06-22T08:13:12.833Z,35
2018-06-22T08:13:33.277Z,40
2018-06-22T08:13:53.827Z,40
2018-06-22T08:14:14.124Z,35
2018-06-22T08:14:34.932Z,35
2018-06-22T08:14:56.505Z,35
2018-06-22T08:15:17.019Z,40
2018-06-22T08:15:37.632Z,40
2018-06-22T08:15:58.196Z,45
2018-06-22T08:16:18.494Z,45
2018-06-22T08:16:38.853Z,50
2018-06-22T08:16:59.389Z,50
2018-06-22T08:17:20.044Z,55
2018-06-22T08:17:40.669Z,55
2018-06-22T08:18:01.097Z,65
2018-06-22T08:18:21.406Z,65
2018-06-22T08:18:41.753Z,65
2018-06-22T08:19:02.029Z,65
2018-06-22T08:19:22.400Z,65
2018-06-22T08:19:42.824Z,65
2018-06-22T08:20:02.981Z,65
2018-06-22T08:20:23.223Z,70
2018-06-22T08:20:43.394Z,70
2018-06-22T08:21:03.809Z,70
2018-06-22T08:21:24.141Z,70
2018-06-22T08:21:44.556Z,70
2018-06-22T08:22:04.798Z,70
2018-06-22T08:22:25.122Z,65
2018-06-22T08:22:45.267Z,65
2018-06-22T08:23:06.433Z,65
2018-06-22T08:23:26.811Z,65
2018-06-22T08:23:46.999Z,65
2018-06-22T08:24:07.206Z,65
2018-06-22T08:24:27.442Z,60
2018-06-22T08:24:47.648Z,60
2018-06-22T08:25:07.908Z,60
2018-06-22T08:25:28.309Z,60
2018-06-22T08:25:48.617Z,55
2018-06-22T08:26:08.930Z,55
2018-06-22T08:26:29.140Z,55
2018-06-22T08:26:49.563Z,55
2018-06-22T08:27:09.921Z,55
2018-06-22T08:27:30.206Z,55
2018-06-22T08:27:50.505Z,55
2018-06-22T08:28:12.851Z,55
2018-06-22T08:28:33.272Z,50
2018-06-22T08:28:53.580Z,50
2018-06-22T08:29:14.854Z,50
2018-06-22T08:29:35.451Z,45
2018-06-22T08:29:55.862Z,45
2018-06-22T08:30:16.194Z,45
2018-06-22T08:30:36.711Z,45
2018-06-22T08:30:57.363Z,40
2018-06-22T08:31:17.728Z,40
2018-06-22T08:31:38.159Z,40
2018-06-22T08:31:58.446Z,40
2018-06-22T08:32:18.741Z,40
2018-06-22T08:32:39.887Z,40
2018-06-22T08:33:00.283Z,40
2018-06-22T08:33:20.460Z,40
2018-06-22T08:33:40.918Z,40
2018-06-22T08:34:01.206Z,35
2018-06-22T08:34:21.433Z,35
2018-06-22T08:34:41.809Z,35
2018-06-22T08:35:02.257Z,35
2018-06-22T08:35:22.510Z,35
2018-06-22T08:35:42.807Z,35
2018-06-22T08:36:24.968Z,30
2018-06-22T08:36:45.536Z,30
2018-06-22T08:37:37.374Z,35
2018-06-22T08:37:57.787Z,35
2018-06-22T08:38:47.196Z,35
2018-06-22T08:39:07.432Z,35
2018-06-22T08:39:27.690Z,40
2018-06-22T08:39:48.044Z,40
2018-06-22T08:40:44.870Z,35
2018-06-22T08:41:05.255Z,35
2018-06-22T08:41:25.819Z,40
2018-06-22T08:42:05.728Z,40
2018-06-22T08:42:26.115Z,40
2018-06-22T08:43:05.523Z,40
2018-06-22T08:43:26.488Z,40
2018-06-22T08:43:46.746Z,40
2018-06-22T08:44:07.075Z,40
2018-06-22T08:44:27.302Z,40
2018-06-22T08:44:47.571Z,45
2018-06-22T08:45:07.830Z,45
2018-06-22T08:45:28.021Z,45
2018-06-22T08:45:48.310Z,45
2018-06-22T08:46:08.735Z,50
2018-06-22T08:46:29.162Z,50
2018-06-22T08:46:49.333Z,50
2018-06-22T08:47:09.609Z,55
2018-06-22T08:47:30.593Z,60
2018-06-22T08:47:51.464Z,65
2018-06-22T08:48:11.643Z,65
2018-06-22T08:48:32.061Z,65
2018-06-22T08:48:52.416Z,60
2018-06-22T08:49:14.466Z,55
2018-06-22T08:49:34.886Z,55
2018-06-22T08:49:55.397Z,55
2018-06-22T08:50:16.699Z,55
2018-06-22T08:50:37.155Z,55
2018-06-22T08:50:57.537Z,60
2018-06-22T08:51:18.102Z,60
2018-06-22T08:51:38.581Z,60
2018-06-22T08:51:58.875Z,65
2018-06-22T08:52:19.391Z,70
2018-06-22T08:52:39.736Z,75
2018-06-22T08:53:00.251Z,75
2018-06-22T08:53:20.669Z,75
2018-06-22T08:53:41.022Z,75
2018-06-22T08:54:01.361Z,75
2018-06-22T08:54:21.668Z,75
2018-06-22T08:54:41.905Z,80
2018-06-22T08:55:02.442Z,75
2018-06-22T08:55:22.722Z,80
2018-06-22T08:55:43.313Z,80
2018-06-22T08:56:03.738Z,80
2018-06-22T08:56:25.695Z,85
2018-06-22T08:56:46.099Z,85
2018-06-22T08:57:06.640Z,80
2018-06-22T08:57:27.002Z,80
2018-06-22T08:57:47.443Z,80
2018-06-22T08:58:07.632Z,75
2018-06-22T08:58:27.946Z,75
2018-06-22T08:58:48.455Z,75
2018-06-22T08:59:08.725Z,75
2018-06-22T08:59:29.022Z,75
2018-06-22T08:59:49.389Z,80
2018-06-22T09:00:09.717Z,80
2018-06-22T09:00:30.645Z,80
2018-06-22T09:00:50.928Z,80
2018-06-22T09:01:11.901Z,75
2018-06-22T09:01:32.795Z,75
2018-06-22T09:01:53.165Z,75
2018-06-22T09:02:13.517Z,75
2018-06-22T09:02:33.978Z,75
2018-06-22T09:02:54.198Z,80
2018-06-22T09:03:14.425Z,80
2018-06-22T09:03:34.820Z,80
2018-06-22T09:03:55.275Z,85
2018-06-22T09:04:15.691Z,85
2018-06-22T09:04:36.006Z,85
2018-06-22T09:04:56.238Z,80
2018-06-22T09:05:16.652Z,75
2018-06-22T09:05:37.192Z,75
2018-06-22T09:05:57.672Z,80
2018-06-22T09:06:18.029Z,75
2018-06-22T09:06:38.426Z,70
2018-06-22T09:06:58.709Z,70
2018-06-22T09:07:19.062Z,65
2018-06-22T09:07:39.222Z,65
2018-06-22T09:07:59.467Z,60
2018-06-22T09:08:19.748Z,55
2018-06-22T09:08:40.179Z,55
2018-06-22T09:09:00.539Z,50
2018-06-22T09:09:20.900Z,45
2018-06-22T09:09:41.212Z,40
2018-06-22T09:10:01.587Z,40
2018-06-22T09:10:21.886Z,40
2018-06-22T09:10:42.252Z,40
2018-06-22T09:11:02.659Z,40
2018-06-22T09:11:22.863Z,40
2018-06-22T09:11:43.141Z,40
2018-06-22T09:12:03.543Z,45
2018-06-22T09:12:23.845Z,45
2018-06-22T09:12:44.091Z,45
2018-06-22T09:13:04.470Z,40
2018-06-22T09:13:25.055Z,40
2018-06-22T09:13:45.356Z,40
2018-06-22T09:14:05.697Z,40
2018-06-22T09:14:25.849Z,45
2018-06-22T09:14:46.976Z,45
2018-06-22T09:15:07.307Z,45
2018-06-22T09:15:30.566Z,45
2018-06-22T09:15:51.064Z,45
2018-06-22T09:16:11.470Z,45
2018-06-22T09:16:32.075Z,45
2018-06-22T09:16:52.688Z,50
2018-06-22T09:17:12.951Z,50
2018-06-22T09:17:33.353Z,50
2018-06-22T09:17:53.783Z,45
2018-06-22T09:18:14.304Z,45
2018-06-22T09:18:34.662Z,45
2018-06-22T09:18:54.968Z,45
2018-06-22T09:19:15.379Z,50
2018-06-22T09:19:36.626Z,50
2018-06-22T09:19:56.950Z,45
2018-06-22T09:20:17.266Z,45
2018-06-22T09:20:37.551Z,40
2018-06-22T09:20:57.838Z,35
2018-06-22T09:21:18.207Z,35
2018-06-22T09:29:00.808Z,30
2018-06-22T09:29:21.055Z,30
2018-06-22T09:29:42.489Z,35
2018-06-22T09:30:02.894Z,35
2018-06-22T09:30:23.313Z,35
2018-06-22T09:30:43.757Z,40
2018-06-22T09:31:04.142Z,40
2018-06-22T09:31:24.953Z,40
2018-06-22T09:31:45.458Z,40
2018-06-22T09:32:05.998Z,40
2018-06-22T09:32:26.486Z,45
2018-06-22T09:32:46.922Z,50
2018-06-22T09:33:07.290Z,55
2018-06-22T09:33:28.482Z,50
2018-06-22T09:33:48.777Z,45
2018-06-22T09:34:08.969Z,40
2018-06-22T09:34:30.512Z,40
2018-06-22T09:34:51.587Z,35
2018-06-22T09:35:14.055Z,35
2018-06-22T09:35:34.400Z,40
2018-06-22T09:35:54.795Z,40
2018-06-22T09:36:15.367Z,40
2018-06-22T09:36:35.776Z,45
2018-06-22T09:36:57.112Z,50
2018-06-22T09:37:18.491Z,50
2018-06-22T09:37:38.835Z,50
2018-06-22T09:37:59.220Z,45
2018-06-22T09:38:20.416Z,45
2018-06-22T09:38:41.187Z,45
2018-06-22T09:39:02.515Z,40
2018-06-22T09:39:23.943Z,40
2018-06-22T09:39:44.380Z,40
2018-06-22T09:40:04.927Z,35
2018-06-22T09:40:25.635Z,35
2018-06-22T09:40:45.923Z,35
2018-06-22T09:41:07.066Z,35
2018-06-22T09:41:27.691Z,35
2018-06-22T09:41:48.313Z,35
2018-06-22T09:42:08.970Z,35
2018-06-22T09:42:29.825Z,35
2018-06-22T09:42:50.833Z,35
2018-06-22T09:43:11.842Z,40
2018-06-22T09:43:32.877Z,35
2018-06-22T09:43:53.400Z,35
2018-06-22T09:44:15.945Z,40
2018-06-22T09:44:36.380Z,40
2018-06-22T09:44:56.753Z,40
2018-06-22T09:45:17.089Z,40
2018-06-22T09:45:37.590Z,40
2018-06-22T09:46:00.543Z,45
2018-06-22T09:46:21.012Z,45
2018-06-22T09:46:41.537Z,45
2018-06-22T09:47:02.090Z,45
2018-06-22T09:47:23.468Z,50
2018-06-22T09:47:44.494Z,45
2018-06-22T09:48:04.798Z,45
2018-06-22T09:48:25.465Z,45
2018-06-22T09:48:45.868Z,40
2018-06-22T09:49:06.352Z,40
2018-06-22T09:49:26.715Z,45
2018-06-22T09:49:47.037Z,45
2018-06-22T09:50:08.293Z,45
2018-06-22T09:50:28.694Z,50
2018-06-22T09:50:49.035Z,55
2018-06-22T09:51:09.364Z,60
2018-06-22T09:51:29.754Z,65
2018-06-22T09:51:50.234Z,60
2018-06-22T09:52:10.599Z,60
2018-06-22T09:52:30.942Z,55
2018-06-22T09:52:51.279Z,55
2018-06-22T09:53:11.651Z,55
2018-06-22T09:53:31.994Z,50
2018-06-22T09:53:52.407Z,50
2018-06-22T09:54:12.767Z,50
2018-06-22T09:54:33.263Z,50
2018-06-22T09:54:53.851Z,55
2018-06-22T09:55:14.483Z,55
2018-06-22T09:55:34.824Z,50
2018-06-22T09:55:55.269Z,55
2018-06-22T09:56:15.624Z,65
2018-06-22T09:56:36.024Z,70
2018-06-22T09:56:56.335Z,75
2018-06-22T09:57:17.441Z,75
2018-06-22T09:57:37.772Z,80
2018-06-22T09:57:58.141Z,85
2018-06-22T09:58:18.551Z,90
2018-06-22T09:58:39.025Z,90
2018-06-22T09:58:59.277Z,90
2018-06-22T09:59:19.559Z,90
2018-06-22T09:59:40.067Z,90
2018-06-22T10:00:00.319Z,90
2018-06-22T10:00:21.528Z,90
2018-06-22T10:00:42.461Z,90
2018-06-22T10:01:02.983Z,90
2018-06-22T10:01:23.431Z,90
2018-06-22T10:01:44.174Z,90
2018-06-22T10:02:04.633Z,90
2018-06-22T10:02:26.165Z,85
2018-06-22T10:02:46.768Z,85
2018-06-22T10:03:08.085Z,80
2018-06-22T10:03:28.589Z,80
2018-06-22T10:03:49.637Z,75
2018-06-22T10:04:10.097Z,75
2018-06-22T10:04:31.531Z,75
2018-06-22T10:04:52.111Z,75
2018-06-22T10:05:12.817Z,85
2018-06-22T10:05:33.249Z,80
2018-06-22T10:05:53.913Z,80
2018-06-22T10:06:14.724Z,80
2018-06-22T10:06:35.072Z,80
2018-06-22T10:06:55.587Z,85
2018-06-22T10:07:16.052Z,90
2018-06-22T10:07:37.033Z,85
2018-06-22T10:07:57.507Z,90
2018-06-22T10:08:18.212Z,90
2018-06-22T10:08:38.895Z,95
2018-06-22T10:09:01.024Z,95
2018-06-22T10:09:21.561Z,95
2018-06-22T10:09:43.083Z,90
2018-06-22T10:10:03.714Z,95
2018-06-22T10:10:24.561Z,95
2018-06-22T10:10:45.101Z,85
2018-06-22T10:11:05.660Z,85
2018-06-22T10:11:26.539Z,85
2018-06-22T10:11:47.427Z,80
2018-06-22T10:12:07.905Z,80
2018-06-22T10:12:28.925Z,80
2018-06-22T10:12:49.429Z,75
2018-06-22T10:13:09.844Z,65
2018-06-22T10:13:30.143Z,60
2018-06-22T10:13:51.627Z,60
2018-06-22T10:14:12.434Z,55
2018-06-22T10:14:33.049Z,60
2018-06-22T10:14:53.568Z,50
2018-06-22T10:15:14.153Z,50
2018-06-22T10:15:35.764Z,50
2018-06-22T10:15:57.024Z,50
2018-06-22T10:16:17.573Z,50
2018-06-22T10:16:38.055Z,55
2018-06-22T10:16:59.921Z,55
2018-06-22T10:17:21.583Z,55
2018-06-22T10:17:42.007Z,60
2018-06-22T10:18:02.653Z,60
2018-06-22T10:18:23.227Z,65
2018-06-22T10:18:43.836Z,70
2018-06-22T10:19:04.463Z,70
2018-06-22T10:19:24.854Z,75
2018-06-22T10:19:45.550Z,80
2018-06-22T10:20:06.109Z,75
2018-06-22T10:20:26.599Z,75
2018-06-22T10:20:47.260Z,80
2018-06-22T10:21:07.692Z,80
2018-06-22T10:21:28.052Z,85
2018-06-22T10:21:49.990Z,85
2018-06-22T10:22:10.342Z,95
2018-06-22T10:22:30.684Z,95
2018-06-22T10:22:51.160Z,95
2018-06-22T10:23:11.542Z,100
2018-06-22T10:23:32.144Z,100
2018-06-22T10:23:53.553Z,100
2018-06-22T10:24:14.230Z,100
2018-06-22T10:24:34.806Z,100
2018-06-22T10:24:55.188Z,95
2018-06-22T10:25:15.734Z,90
2018-06-22T10:25:38.078Z,85
2018-06-22T10:25:58.734Z,80
2018-06-22T10:26:19.354Z,75
2018-06-22T10:26:40.038Z,70
2018-06-22T10:27:00.507Z,60
2018-06-22T10:27:20.851Z,55
2018-06-22T10:27:42.070Z,50
2018-06-22T10:28:02.582Z,50
2018-06-22T10:28:23.227Z,45
2018-06-22T10:28:44.427Z,45
2018-06-22T10:29:04.942Z,45
2018-06-22T10:29:25.511Z,40
2018-06-22T10:29:46.033Z,40
2018-06-22T10:30:06.490Z,40
2018-06-22T10:30:26.986Z,40
2018-06-22T10:30:47.667Z,40
2018-06-22T10:31:08.245Z,40
2018-06-22T10:31:28.737Z,40
2018-06-22T10:31:49.456Z,45
2018-06-22T10:32:09.879Z,45
2018-06-22T10:32:32.493Z,45
2018-06-22T10:32:54.113Z,45
2018-06-22T10:33:14.540Z,45
2018-06-22T10:33:35.155Z,45
2018-06-22T10:33:55.478Z,50
2018-06-22T10:34:15.707Z,50
2018-06-22T10:34:37.982Z,50
2018-06-22T10:35:00.129Z,50
2018-06-22T10:35:21.070Z,55
2018-06-22T10:35:41.711Z,60
2018-06-22T10:36:05.499Z,65
2018-06-22T10:36:27.075Z,65
2018-06-22T10:36:48.339Z,70
2018-06-22T10:37:08.690Z,75
2018-06-22T10:37:29.071Z,75
2018-06-22T10:37:49.401Z,75
2018-06-22T10:38:09.736Z,80
2018-06-22T10:38:30.823Z,80
2018-06-22T10:38:51.142Z,75
2018-06-22T10:39:12.717Z,75
2018-06-22T10:39:32.899Z,75
2018-06-22T10:39:53.986Z,80
2018-06-22T10:40:14.314Z,80
2018-06-22T10:40:35.463Z,80
2018-06-22T10:40:55.855Z,85
2018-06-22T10:41:16.321Z,85
2018-06-22T10:41:37.331Z,80
2018-06-22T10:41:57.675Z,75
2018-06-22T10:42:18.082Z,70
2018-06-22T10:42:38.503Z,70
2018-06-22T10:42:59.122Z,75
2018-06-22T10:43:19.689Z,75
2018-06-22T10:43:40.084Z,75
2018-06-22T10:44:00.378Z,75
2018-06-22T10:44:20.756Z,75
2018-06-22T10:44:41.244Z,80
2018-06-22T10:45:03.555Z,80
2018-06-22T10:45:25.073Z,80
2018-06-22T10:45:45.299Z,80
2018-06-22T10:46:05.813Z,80
2018-06-22T10:46:26.386Z,80
2018-06-22T10:46:46.665Z,80
2018-06-22T10:47:07.074Z,80
2018-06-22T10:47:27.381Z,80
2018-06-22T10:47:47.688Z,80
2018-06-22T10:48:07.938Z,80
2018-06-22T10:48:28.429Z,80
2018-06-22T10:48:49.567Z,80
2018-06-22T10:49:09.892Z,80
2018-06-22T10:49:30.266Z,75
2018-06-22T10:49:50.747Z,75
2018-06-22T10:50:11.000Z,70
2018-06-22T10:50:31.420Z,70
2018-06-22T10:50:51.933Z,70
2018-06-22T10:51:12.351Z,70
2018-06-22T10:51:32.614Z,70
2018-06-22T10:51:53.029Z,75
2018-06-22T10:52:13.640Z,75
2018-06-22T10:52:34.773Z,80
2018-06-22T10:52:55.623Z,75
2018-06-22T10:53:16.138Z,75
2018-06-22T10:53:38.154Z,75
2018-06-22T10:53:58.762Z,75
2018-06-22T10:54:20.156Z,80
2018-06-22T10:54:40.706Z,75
2018-06-22T10:55:01.087Z,75
2018-06-22T10:55:21.484Z,80
2018-06-22T10:55:42.076Z,80
2018-06-22T10:56:02.467Z,75
2018-06-22T10:56:22.832Z,70
2018-06-22T10:56:43.132Z,70
2018-06-22T10:57:03.485Z,70
2018-06-22T10:57:23.860Z,65
2018-06-22T10:57:44.320Z,60
2018-06-22T10:58:04.911Z,55
2018-06-22T10:58:25.420Z,55
2018-06-22T10:58:45.765Z,50
2018-06-22T10:59:06.262Z,50
2018-06-22T10:59:26.760Z,45
2018-06-22T10:59:47.756Z,40
2018-06-22T11:00:08.211Z,35
2018-06-22T11:00:28.772Z,35
2018-06-22T11:00:50.225Z,35
2018-06-22T11:01:10.960Z,35
2018-06-22T11:01:31.417Z,40
2018-06-22T11:01:52.012Z,40
2018-06-22T11:02:12.508Z,35
2018-06-22T11:02:33.009Z,35
2018-06-22T11:02:54.081Z,35
2018-06-22T11:03:14.759Z,35
2018-06-22T11:03:35.408Z,35
2018-06-22T11:03:56.663Z,35
2018-06-22T11:04:18.012Z,40
2018-06-22T11:04:39.647Z,50
2018-06-22T11:05:00.343Z,55
2018-06-22T11:05:20.964Z,55
2018-06-22T11:05:42.141Z,60
2018-06-22T11:06:02.772Z,65
2018-06-22T11:06:23.407Z,75
2018-06-22T11:06:43.945Z,80
2018-06-22T11:07:04.604Z,85
2018-06-22T11:07:25.216Z,90
2018-06-22T11:07:45.543Z,85
2018-06-22T11:08:06.335Z,75
2018-06-22T11:08:26.957Z,75
2018-06-22T11:08:47.580Z,70
2018-06-22T11:09:08.128Z,70
2018-06-22T11:09:28.622Z,65
2018-06-22T11:09:49.099Z,65
2018-06-22T11:10:09.594Z,65
2018-06-22T11:10:30.073Z,60
2018-06-22T11:10:50.731Z,60
2018-06-22T11:11:11.170Z,65
2018-06-22T11:11:31.740Z,65
2018-06-22T11:11:52.343Z,70
2018-06-22T11:12:12.851Z,70
2018-06-22T11:12:33.268Z,70
2018-06-22T11:12:53.843Z,70
2018-06-22T11:13:14.271Z,80
2018-06-22T11:13:34.895Z,75
2018-06-22T11:13:55.328Z,80
2018-06-22T11:14:16.062Z,80
2018-06-22T11:14:36.499Z,75
2018-06-22T11:14:56.933Z,75
2018-06-22T11:15:17.684Z,75
2018-06-22T11:15:37.979Z,80
2018-06-22T11:15:58.410Z,80
2018-06-22T11:16:18.770Z,85
2018-06-22T11:16:39.425Z,85
2018-06-22T11:17:00.088Z,85
2018-06-22T11:17:20.845Z,85
2018-06-22T11:17:41.246Z,90
2018-06-22T11:18:01.620Z,90
2018-06-22T11:18:22.294Z,90
2018-06-22T11:18:42.849Z,90
2018-06-22T11:19:03.391Z,95
2018-06-22T11:19:23.735Z,95
2018-06-22T11:19:44.272Z,95
2018-06-22T11:20:04.783Z,95
2018-06-22T11:20:25.984Z,95
2018-06-22T11:20:47.248Z,95
2018-06-22T11:21:07.748Z,95
2018-06-22T11:21:28.344Z,95
2018-06-22T11:21:48.733Z,95
2018-06-22T11:22:09.308Z,95
2018-06-22T11:22:29.771Z,95
2018-06-22T11:22:51.058Z,95
2018-06-22T11:23:11.584Z,95
2018-06-22T11:23:32.300Z,105
2018-06-22T11:23:52.785Z,100
2018-06-22T11:24:13.374Z,100
2018-06-22T11:24:34.196Z,100
2018-06-22T11:24:55.119Z,100
2018-06-22T11:25:15.662Z,105
2018-06-22T11:25:37.099Z,105
2018-06-22T11:25:57.844Z,100
2018-06-22T11:26:18.281Z,100
2018-06-22T11:26:39.023Z,100
2018-06-22T11:26:59.522Z,105
2018-06-22T11:27:20.247Z,105
2018-06-22T11:27:40.864Z,110
2018-06-22T11:28:02.344Z,100
2018-06-22T11:28:23.058Z,95
2018-06-22T11:28:43.775Z,100
2018-06-22T11:29:04.390Z,100
2018-06-22T11:29:25.672Z,100
2018-06-22T11:29:48.065Z,95
2018-06-22T11:30:08.505Z,95
2018-06-22T11:30:29.045Z,95
2018-06-22T11:30:49.698Z,95
2018-06-22T11:31:10.136Z,95
2018-06-22T11:31:30.631Z,100
2018-06-22T11:31:51.003Z,85
2018-06-22T11:32:11.498Z,75
2018-06-22T11:32:32.016Z,85
2018-06-22T11:32:52.436Z,100
2018-06-22T11:33:12.948Z,110
2018-06-22T11:33:33.571Z,110
2018-06-22T11:33:54.603Z,110
2018-06-22T11:34:15.362Z,110
2018-06-22T11:34:36.077Z,115
2018-06-22T11:34:56.444Z,115
2018-06-22T11:35:16.901Z,115
2018-06-22T11:35:37.670Z,125
2018-06-22T11:35:58.323Z,125
2018-06-22T11:36:18.690Z,125
2018-06-22T11:36:39.162Z,115
2018-06-22T11:36:59.735Z,115
2018-06-22T11:37:20.108Z,115
2018-06-22T11:37:40.687Z,115
2018-06-22T11:38:01.140Z,115
2018-06-22T11:38:21.583Z,110
2018-06-22T11:38:42.064Z,110
2018-06-22T11:39:02.727Z,110
2018-06-22T11:39:23.243Z,110
2018-06-22T11:39:43.847Z,110
2018-06-22T11:40:05.068Z,105
2018-06-22T11:40:25.470Z,100
2018-06-22T11:40:48.583Z,95
2018-06-22T11:41:08.931Z,95
2018-06-22T11:41:29.573Z,95
2018-06-22T11:41:52.146Z,100
2018-06-22T11:42:12.664Z,95
2018-06-22T11:42:33.228Z,95
2018-06-22T11:42:54.159Z,95
2018-06-22T11:43:14.741Z,90
2018-06-22T11:43:36.164Z,90
2018-06-22T11:43:57.538Z,90
2018-06-22T11:44:18.153Z,90
2018-06-22T11:44:38.684Z,90
2018-06-22T11:44:59.063Z,90
2018-06-22T11:45:19.666Z,95
2018-06-22T11:45:40.246Z,100
2018-06-22T11:46:00.652Z,100
2018-06-22T11:46:21.821Z,100